• Join FlightAware (Why Join?)
  • Login
  • US Flag 
10:10AM EDT


 

Airport Tracker/Info


-or-


 

Live Flight TrackerFlight Track Log ✈ N35246 ✈ 06-May-2014 ✈ KPMP - KPHK

Flight Track Log - Related Links

Times and Time Zones

All times are in EDT time to prevent confusion due to time zone crossing. See the N35246 flight status page for this flight to view local times or setup timezone preferences in your user account.

Time Position Orientation Groundspeed Altitude Reporting Facility
EDT Latitude Longitude Course Direction KTS MPH feet Rate Location/Type
10:46AM 26.2678 -80.1325 317° Northwest  Level FlightAware Approximate
10:47AM 26.2883 -80.1537 317° Northwest  Level FlightAware Approximate
10:48AM 26.3087 -80.1750 317° Northwest  Level FlightAware Approximate
10:49AM 26.3323 -80.1911 336° Northwest  Level FlightAware Approximate
10:50AM 26.3563 -80.2063 318° Northwest  Level FlightAware Approximate
10:51AM 26.3772 -80.2271 318° Northwest  Level FlightAware Approximate
10:52AM 26.3980 -80.2480 318° Northwest  Level FlightAware Approximate
10:53AM 26.4188 -80.2688 318° Northwest  Level FlightAware Approximate
10:54AM 26.4397 -80.2896 318° Northwest  Level FlightAware Approximate
10:55AM 26.4605 -80.3104 318° Northwest  Level FlightAware Approximate
10:56AM 26.4813 -80.3312 318° Northwest  Level FlightAware Approximate
10:57AM 26.5021 -80.3521 318° Northwest  Level FlightAware Approximate
10:58AM 26.5230 -80.3729 318° Northwest  Level FlightAware Approximate
10:59AM 26.5438 -80.3938 318° Northwest  Level FlightAware Approximate
11:00AM 26.5646 -80.4146 318° Northwest  Level FlightAware Approximate
11:01AM 26.5829 -80.4382 310° West  Level FlightAware Approximate
11:02AM 26.6009 -80.4622 310° West  Level FlightAware Approximate
11:03AM 26.6189 -80.4861 310° West  Level FlightAware Approximate
11:04AM 26.6368 -80.5100 310° West  Level FlightAware Approximate
11:05AM 26.6548 -80.5340 310° West  Level FlightAware Approximate
11:06AM 26.6728 -80.5579 310° West  Level FlightAware Approximate
11:07AM 26.6907 -80.5819 310° West  Level FlightAware Approximate
11:08AM 26.7087 -80.6059 310° West  Level FlightAware Approximate
11:09AM 26.7267 -80.6299 310° West  Level FlightAware Approximate
11:10AM 26.7446 -80.6538 310° West  Level FlightAware Approximate
11:11AM 26.7626 -80.6778 310° West  Level FlightAware Approximate
11:12AM 26.7882 -80.6833 North  Level FlightAware Approximate
11:13AM 26.7850 -80.6934 360° North  Level Estimated
11:14AM 26.7850 -80.6934 North  Level Estimated
11:15AM 26.7850 -80.6934 180° South  Level Estimated
11:16AM 26.7850 -80.6934 101° East  Level Estimated
11:17AM 26.7850 -80.6934 180° South  Level Estimated
11:18AM 26.7850 -80.6934 16° North  Level Estimated
11:19AM 26.7850 -80.6934 North  Level Estimated
11:20AM 26.7850 -80.6934 180° South  Level Estimated
11:21AM 26.7850 -80.6934 101° East  Level Estimated
11:22AM 26.7850 -80.6934 180° South  Level Estimated
11:23AM 26.7850 -80.6934 16° North  Level Estimated
11:24AM 26.7850 -80.6934 North  Level Estimated
11:25AM 26.7850 -80.6934 180° South  Level Estimated
11:25AM 26.2431 -80.1044 180° South 65 75 200  Level Miami Center
11:26AM 26.7850 -80.6934 101° East  Level Estimated
11:26AM 26.2556 -80.1053 357° North 90 104 900  Level Miami Center
11:27AM 26.7850 -80.6934 180° South  Level Estimated
11:27AM 26.2583 -80.1128 292° West 87 100 1,100  Level Miami Center
11:27AM 26.2581 -80.1333 269° West 91 105 1,400 480 Climbing Miami Center
11:28AM 26.7850 -80.6934 16° North  Level Estimated
11:28AM 26.2583 -80.1439 272° West 91 105 1,600  Level Miami Center
11:28AM 26.2603 -80.1636 276° West 93 107 1,800 240 Climbing Miami Center
11:29AM 26.7850 -80.6934 North  Level Estimated
11:29AM 26.2669 -80.1697 321° Northwest 92 106 1,900  Level Miami Center
11:29AM 26.2781 -80.1836 312° West 88 101 2,200 360 Climbing Miami Center
11:30AM 26.7850 -80.6934 180° South  Level Estimated
11:30AM 26.2839 -80.1894 318° Northwest 92 106 2,300  Level Miami Center
11:30AM 26.2956 -80.2036 313° West 90 104 2,700 480 Climbing Miami Center
11:31AM 26.3039 -80.2106 323° Northwest 91 105 2,800 360 Climbing Miami Center
11:31AM 26.3133 -80.2211 315° West 87 100 3,100 360 Climbing Miami Center
11:32AM 26.3214 -80.2289 319° Northwest 91 105 3,200 420 Climbing Miami Center
11:32AM 26.3311 -80.2389 317° Northwest 86 99 3,500 480 Climbing Miami Center
11:33AM 26.3397 -80.2483 315° West 89 102 3,700 300 Climbing Miami Center
11:34AM 26.3567 -80.2675 315° West 87 100 4,000 120 Climbing Miami Center
11:35AM 26.3797 -80.2869 323° Northwest 94 108 4,000 -60 Level Miami Center
11:36AM 26.4047 -80.3061 326° Northwest 107 123 3,900 -60 Descending Miami Center
11:37AM 26.4281 -80.3236 326° Northwest 92 106 3,900  Level Miami Center
11:38AM 26.4481 -80.3433 319° Northwest 94 108 4,000  Climbing Miami Center
11:39AM 26.4686 -80.3686 312° West 101 116 3,900  Descending Miami Center
11:40AM 26.4892 -80.3883 319° Northwest 96 110 4,000 -60 Climbing Miami Center
11:41AM 26.5044 -80.4136 304° West 97 112 3,800 -420 Descending Miami Center
11:42AM 26.5150 -80.4486 289° West 107 123 3,200 -420 Descending Miami Center
11:43AM 26.5286 -80.4742 301° West 104 120 3,000 -120 Descending Miami Center
11:44AM 26.5572 -80.4756 358° North 93 107 3,000  Level Miami Center
11:45AM 26.5828 -80.4764 358° North 94 108 3,000  Level Miami Center
11:46AM 26.6064 -80.4961 323° Northwest 95 109 3,000 -60 Level Miami Center
11:47AM 26.6247 -80.5175 314° West 96 110 2,900  Descending Miami Center
11:48AM 26.6467 -80.5392 319° Northwest 96 110 3,000  Climbing Miami Center
11:49AM 26.6700 -80.5614 320° Northwest 110 127 2,900 -60 Descending Miami Center
11:50AM 26.6894 -80.5917 306° West 116 133 2,900  Level Miami Center
11:51AM 26.7114 -80.6203 311° West 116 133 3,000  Climbing Miami Center
11:53AM 26.7322 -80.6456 313° West 110 127 2,900 -60 Descending Miami Center
11:54AM 26.7589 -80.6667 325° Northwest 110 127 2,900 -60 Level Miami Center
11:55AM 26.7844 -80.6875 324° Northwest 111 128 2,800 -420 Descending Miami Center
11:56AM 26.8136 -80.6978 343° North 109 125 2,100 -420 Descending Miami Center
11:57AM 26.8383 -80.6847 25° Northeast 96 110 2,000 -60 Descending Miami Center
11:58AM 26.8658 -80.6889 352° North 103 119 2,000  Level Miami Center
11:59AM 26.8853 -80.6700 41° Northeast 96 110 2,000 -60 Level Miami Center
12:00PM 26.9011 -80.6728 351° North 110 127 1,900  Descending Miami Center
12:01PM 26.8786 -80.6853 206° Southwest 91 105 2,000 -60 Climbing Miami Center
12:02PM 26.8544 -80.6886 187° South 87 100 1,800 -480 Descending Miami Center
12:03PM 26.8297 -80.6894 182° South 87 100 1,100 -480 Descending Miami Center
12:04PM 26.8036 -80.6878 177° South 88 101 900 120 Descending Miami Center
12:05PM 26.7975 -80.6742 117° Southeast 86 99 1,400 360 Climbing Miami Center
12:06PM 26.8164 -80.6750 358° North 81 93 1,700 240 Climbing Miami Center